createdAt,value
2019-05-14T00:00:23.809Z,1.20
2019-05-14T00:02:53.523Z,1.20
2019-05-14T00:05:23.420Z,1.10
2019-05-14T00:07:54.299Z,1.13
2019-05-14T00:10:24.284Z,1.40
2019-05-14T00:12:54.211Z,0.90
2019-05-14T00:15:24.227Z,1.10
2019-05-14T00:17:53.864Z,1.20
2019-05-14T00:20:23.538Z,1.30
2019-05-14T00:22:54.157Z,1.30
2019-05-14T00:25:23.816Z,1.10
2019-05-14T00:27:53.479Z,1.40
2019-05-14T00:30:23.149Z,1.33
2019-05-14T00:32:52.800Z,1.43
2019-05-14T00:35:22.460Z,1.17
2019-05-14T00:37:52.255Z,1.30
2019-05-14T00:40:23.042Z,1.00
2019-05-14T00:42:53.409Z,1.00
2019-05-14T00:45:23.465Z,1.30
2019-05-14T00:47:54.438Z,1.40
2019-05-14T00:50:24.105Z,1.13
2019-05-14T00:52:54.017Z,1.50
2019-05-14T00:55:23.682Z,1.00
2019-05-14T00:57:53.320Z,1.17
2019-05-14T01:00:23.116Z,1.30
2019-05-14T01:02:53.629Z,1.05
2019-05-14T01:05:23.362Z,1.20
2019-05-14T01:07:53.027Z,1.20
2019-05-14T01:10:22.774Z,1.10
2019-05-14T01:12:52.427Z,1.42
2019-05-14T01:15:22.191Z,1.07
2019-05-14T01:17:52.087Z,1.10
2019-05-14T01:20:22.071Z,1.37
2019-05-14T01:22:51.815Z,1.00
2019-05-14T01:25:23.705Z,1.15
2019-05-14T01:27:52.871Z,0.90
2019-05-14T01:30:22.673Z,1.10
2019-05-14T01:32:52.392Z,1.00
2019-05-14T01:35:22.307Z,0.90
2019-05-14T01:37:52.512Z,1.03
2019-05-14T01:40:22.261Z,0.90
2019-05-14T01:42:52.341Z,1.17
2019-05-14T01:45:27.927Z,1.00
2019-05-14T01:47:54.109Z,1.10
2019-05-14T01:50:23.760Z,0.70
2019-05-14T01:52:54.141Z,0.90
2019-05-14T01:55:23.793Z,1.10
2019-05-14T01:57:53.703Z,1.40
2019-05-14T02:00:23.774Z,1.05
2019-05-14T02:02:53.408Z,1.00
2019-05-14T02:05:23.068Z,1.23
2019-05-14T02:07:52.866Z,1.10
2019-05-14T02:10:23.288Z,1.10
2019-05-14T02:12:52.941Z,1.40
2019-05-14T02:15:36.355Z,1.05
2019-05-14T02:17:54.387Z,1.27
2019-05-14T02:20:24.414Z,1.00
2019-05-14T02:22:54.106Z,1.00
2019-05-14T02:25:23.758Z,1.00
2019-05-14T02:27:53.777Z,1.00
2019-05-14T02:30:32.153Z,1.03
2019-05-14T02:32:55.854Z,1.10
2019-05-14T02:35:29.548Z,1.27
2019-05-14T02:37:59.603Z,0.93
2019-05-14T02:40:29.466Z,0.97
2019-05-14T02:42:59.603Z,1.00
2019-05-14T02:45:30.310Z,1.00
2019-05-14T02:48:01.327Z,1.23
2019-05-14T02:50:31.949Z,1.07
2019-05-14T02:53:01.595Z,1.10
2019-05-14T02:55:31.236Z,0.80
2019-05-14T02:58:00.890Z,0.90
2019-05-14T03:00:30.528Z,1.27
2019-05-14T03:03:00.263Z,1.20
2019-05-14T03:05:29.937Z,0.82
2019-05-14T03:08:00.144Z,0.95
2019-05-14T03:10:30.528Z,1.10
2019-05-14T03:13:00.551Z,0.90
2019-05-14T03:15:30.323Z,1.03
2019-05-14T03:18:00.262Z,1.22
2019-05-14T03:20:29.938Z,1.30
2019-05-14T03:23:07.968Z,1.17
2019-05-14T03:25:31.140Z,1.20
2019-05-14T03:28:00.821Z,1.20
2019-05-14T03:30:32.459Z,1.27
2019-05-14T03:33:03.342Z,1.00
2019-05-14T03:35:42.012Z,1.07
2019-05-14T03:38:04.727Z,1.20
2019-05-14T03:40:34.452Z,1.37
2019-05-14T03:43:04.159Z,1.40
2019-05-14T03:45:33.879Z,1.25
2019-05-14T03:48:03.898Z,1.50
2019-05-14T03:50:33.605Z,1.20
2019-05-14T03:53:03.368Z,1.17
2019-05-14T03:55:33.273Z,1.12
2019-05-14T03:58:03.241Z,1.45
2019-05-14T04:00:50.205Z,1.50
2019-05-14T04:03:20.721Z,1.30
2019-05-14T04:05:52.331Z,1.25
2019-05-14T04:08:22.627Z,1.37
2019-05-14T04:10:54.618Z,1.13
2019-05-14T04:13:25.572Z,1.30
2019-05-14T04:15:56.036Z,1.55
2019-05-14T04:18:29.033Z,1.20
2019-05-14T04:20:59.836Z,1.50
2019-05-14T04:23:30.798Z,1.32
2019-05-14T04:26:03.337Z,1.30
2019-05-14T04:28:34.631Z,1.67
2019-05-14T04:31:09.496Z,1.30
2019-05-14T04:33:39.582Z,1.57
2019-05-14T04:36:10.081Z,1.60
2019-05-14T04:38:41.122Z,1.57
2019-05-14T04:41:11.935Z,1.30
2019-05-14T04:43:41.710Z,2.27
2019-05-14T04:46:11.356Z,1.80
2019-05-14T04:48:43.342Z,2.02
2019-05-14T04:51:12.607Z,2.67
2019-05-14T04:53:42.412Z,1.70
2019-05-14T04:56:13.101Z,1.27
2019-05-14T04:58:42.945Z,1.73
2019-05-14T05:01:12.586Z,1.65
2019-05-14T05:03:42.233Z,1.70
2019-05-14T05:06:12.125Z,1.63
2019-05-14T05:08:42.115Z,1.77
2019-05-14T05:11:12.006Z,1.77
2019-05-14T05:13:41.661Z,1.73
2019-05-14T05:16:11.322Z,1.90
2019-05-14T05:18:40.984Z,1.37
2019-05-14T05:21:10.633Z,1.40
2019-05-14T05:23:40.328Z,1.70
2019-05-14T05:26:09.971Z,2.00
2019-05-14T05:28:39.702Z,1.67
2019-05-14T05:31:09.610Z,1.80
2019-05-14T05:33:39.273Z,1.67
2019-05-14T05:36:09.541Z,2.10
2019-05-14T05:38:39.899Z,1.98
2019-05-14T05:41:09.556Z,1.67
2019-05-14T05:43:39.552Z,1.97
2019-05-14T05:46:09.511Z,1.73
2019-05-14T05:48:39.231Z,2.00
2019-05-14T05:51:10.101Z,2.00
2019-05-14T05:53:39.992Z,2.20
2019-05-14T05:56:09.789Z,2.20
2019-05-14T05:58:40.056Z,2.20
2019-05-14T06:01:10.043Z,1.93
2019-05-14T06:03:39.660Z,1.62
2019-05-14T06:06:13.606Z,1.80
2019-05-14T06:08:41.671Z,2.10
2019-05-14T06:11:11.327Z,2.27
2019-05-14T06:13:41.279Z,2.40
2019-05-14T06:16:10.939Z,2.17
2019-05-14T06:18:40.584Z,2.02
2019-05-14T06:21:10.318Z,2.53
2019-05-14T06:23:41.401Z,2.23
2019-05-14T06:26:11.886Z,2.27
2019-05-14T06:28:41.578Z,2.13
2019-05-14T06:31:11.242Z,2.30
2019-05-14T06:33:42.164Z,1.80
2019-05-14T06:36:14.473Z,2.08
2019-05-14T06:38:43.145Z,1.83
2019-05-14T06:41:13.177Z,1.87
2019-05-14T06:43:42.865Z,2.40
2019-05-14T06:46:12.522Z,2.20
2019-05-14T06:48:42.167Z,1.80
2019-05-14T06:51:11.812Z,2.20
2019-05-14T06:53:41.458Z,1.60
2019-05-14T06:56:11.226Z,1.33
2019-05-14T06:58:40.889Z,2.57
2019-05-14T07:01:10.524Z,1.90
2019-05-14T07:03:40.165Z,1.77
2019-05-14T07:06:09.822Z,1.67
2019-05-14T07:08:39.526Z,2.05
2019-05-14T07:11:09.127Z,2.10
2019-05-14T07:13:39.848Z,1.63
2019-05-14T07:16:09.498Z,1.63
2019-05-14T07:18:50.664Z,1.40
2019-05-14T07:21:10.609Z,1.85
2019-05-14T07:23:40.348Z,1.90
2019-05-14T07:26:10.001Z,1.70
2019-05-14T07:28:42.482Z,1.83
2019-05-14T07:31:11.010Z,2.05
2019-05-14T07:33:41.126Z,1.77
2019-05-14T07:36:10.785Z,1.75
2019-05-14T07:38:40.420Z,2.20
2019-05-14T07:41:10.177Z,2.20
2019-05-14T07:43:39.819Z,2.10
2019-05-14T07:46:09.484Z,2.20
2019-05-14T07:48:39.520Z,1.92
2019-05-14T07:51:09.245Z,1.90
2019-05-14T07:53:42.284Z,2.10
2019-05-14T07:56:10.793Z,2.40
2019-05-14T07:58:41.113Z,1.77
2019-05-14T08:01:10.775Z,1.50
2019-05-14T08:03:40.411Z,1.80
2019-05-14T08:06:10.320Z,1.80
2019-05-14T08:08:40.036Z,1.70
2019-05-14T08:11:09.698Z,1.40
2019-05-14T08:13:42.280Z,1.60
2019-05-14T08:16:10.757Z,1.50
2019-05-14T08:18:40.445Z,1.27
2019-05-14T08:21:10.482Z,1.07
2019-05-14T08:23:41.063Z,1.40
2019-05-14T08:26:10.807Z,1.33
2019-05-14T08:28:40.446Z,1.30
2019-05-14T08:31:11.325Z,1.40
2019-05-14T08:33:41.486Z,1.90
2019-05-14T08:36:11.461Z,1.73
2019-05-14T08:38:45.378Z,1.37
2019-05-14T08:41:12.600Z,1.37
2019-05-14T08:43:42.246Z,1.63
2019-05-14T08:46:11.908Z,1.30
2019-05-14T08:48:41.869Z,1.20
2019-05-14T08:51:11.519Z,1.07
2019-05-14T08:53:41.170Z,1.10
2019-05-14T08:56:12.296Z,1.07
2019-05-14T08:58:42.032Z,0.90
2019-05-14T09:01:11.678Z,1.00
2019-05-14T09:03:41.350Z,1.20
2019-05-14T09:06:11.012Z,1.33
2019-05-14T09:08:40.666Z,1.10
2019-05-14T09:11:10.312Z,0.93
2019-05-14T09:13:40.206Z,0.77
2019-05-14T09:16:09.850Z,1.23
2019-05-14T09:18:39.503Z,1.00
2019-05-14T09:21:09.215Z,1.03
2019-05-14T09:23:39.446Z,1.07
2019-05-14T09:26:09.839Z,0.90
2019-05-14T09:28:39.834Z,1.10
2019-05-14T09:31:09.476Z,0.90
2019-05-14T09:33:39.321Z,0.90
2019-05-14T09:36:17.943Z,0.80
2019-05-14T09:38:42.117Z,1.10
2019-05-14T09:41:15.445Z,1.10
2019-05-14T09:43:43.877Z,0.90
2019-05-14T09:46:14.482Z,0.70
2019-05-14T09:48:44.218Z,0.80
2019-05-14T09:51:13.855Z,0.90
2019-05-14T09:53:43.511Z,0.90
2019-05-14T09:56:13.148Z,1.03
2019-05-14T09:58:42.927Z,1.02
2019-05-14T10:01:13.464Z,1.30
2019-05-14T10:03:43.265Z,1.13
2019-05-14T10:06:12.966Z,1.47
2019-05-14T10:08:42.622Z,1.12
2019-05-14T10:11:12.273Z,1.17
2019-05-14T10:13:42.173Z,1.30
2019-05-14T10:16:11.820Z,1.83
2019-05-14T10:18:41.480Z,1.90
2019-05-14T10:21:11.118Z,1.62
2019-05-14T10:23:40.890Z,1.40
2019-05-14T10:26:10.599Z,1.60
2019-05-14T10:28:43.314Z,1.60
2019-05-14T10:31:13.440Z,2.42
2019-05-14T10:33:45.089Z,1.52
2019-05-14T10:36:14.732Z,1.40
2019-05-14T10:38:44.382Z,2.08
2019-05-14T10:41:14.280Z,1.60
2019-05-14T10:43:44.003Z,1.50
2019-05-14T10:46:13.664Z,1.52
2019-05-14T10:48:43.324Z,1.70
2019-05-14T10:51:12.953Z,1.50
2019-05-14T10:53:42.633Z,1.40
2019-05-14T10:56:13.565Z,1.03
2019-05-14T10:58:43.221Z,1.50
2019-05-14T11:01:12.926Z,1.60
2019-05-14T11:03:42.569Z,1.80
2019-05-14T11:06:13.175Z,1.53
2019-05-14T11:08:43.156Z,1.90
2019-05-14T11:11:13.069Z,1.70
2019-05-14T11:13:42.733Z,1.70
2019-05-14T11:16:12.387Z,1.57
2019-05-14T11:18:42.069Z,1.87
2019-05-14T11:21:24.988Z,0.93
2019-05-14T11:23:43.380Z,1.70
2019-05-14T11:26:13.030Z,1.33
2019-05-14T11:28:42.756Z,1.60
2019-05-14T11:31:12.409Z,1.50
2019-05-14T11:33:42.129Z,1.30
2019-05-14T11:36:11.774Z,1.43
2019-05-14T11:38:41.425Z,1.27
2019-05-14T11:41:11.132Z,1.30
2019-05-14T11:43:40.783Z,1.33
2019-05-14T11:46:10.417Z,1.60
2019-05-14T11:48:40.074Z,0.70
2019-05-14T11:51:09.965Z,0.87
2019-05-14T11:53:39.607Z,1.17
2019-05-14T11:56:09.257Z,1.60
2019-05-14T11:58:38.901Z,1.25
2019-05-14T12:01:09.360Z,1.32
2019-05-14T12:03:39.622Z,1.00
2019-05-14T12:06:10.051Z,1.53
2019-05-14T12:08:41.795Z,1.42
2019-05-14T12:11:11.193Z,1.60
2019-05-14T12:13:41.080Z,1.73
2019-05-14T12:16:10.739Z,1.23
2019-05-14T12:18:41.731Z,1.30
2019-05-14T12:21:11.852Z,1.83
2019-05-14T12:23:41.488Z,1.42
2019-05-14T12:26:11.139Z,1.63
2019-05-14T12:28:40.781Z,1.90
2019-05-14T12:31:10.430Z,1.80
2019-05-14T12:33:40.179Z,1.70
2019-05-14T12:36:10.628Z,1.98
2019-05-14T12:38:40.246Z,2.30
2019-05-14T12:41:09.968Z,2.50
2019-05-14T12:43:42.018Z,1.50
2019-05-14T12:46:10.965Z,1.70
2019-05-14T12:48:40.605Z,1.60
2019-05-14T12:51:10.404Z,1.20
2019-05-14T12:53:40.045Z,1.10
2019-05-14T12:56:09.769Z,1.63
2019-05-14T12:58:44.874Z,1.60
2019-05-14T13:01:10.817Z,1.20
2019-05-14T13:03:40.629Z,1.32
2019-05-14T13:06:10.492Z,1.60
2019-05-14T13:08:40.380Z,1.45
2019-05-14T13:11:10.320Z,1.60
2019-05-14T13:13:42.820Z,1.73
2019-05-14T13:16:12.981Z,1.60
2019-05-14T13:18:42.616Z,1.60
2019-05-14T13:21:12.283Z,1.70
2019-05-14T13:23:41.906Z,1.70
2019-05-14T13:26:11.607Z,1.73
2019-05-14T13:28:41.289Z,1.77
2019-05-14T13:31:11.893Z,1.70
2019-05-14T13:33:41.533Z,1.70
2019-05-14T13:36:11.185Z,2.40
2019-05-14T13:38:40.816Z,1.80
2019-05-14T13:41:10.546Z,1.93
2019-05-14T13:43:40.336Z,1.93
2019-05-14T13:46:14.388Z,1.67
2019-05-14T13:48:43.353Z,1.90
2019-05-14T13:51:13.029Z,2.13
2019-05-14T13:53:44.695Z,2.30
2019-05-14T13:56:14.419Z,2.07
2019-05-14T13:58:44.148Z,2.20
2019-05-14T14:01:13.799Z,2.17
2019-05-14T14:03:49.383Z,1.80
2019-05-14T14:06:14.912Z,1.80
2019-05-14T14:08:44.548Z,1.90
2019-05-14T14:11:14.209Z,1.77
2019-05-14T14:13:44.444Z,1.97
2019-05-14T14:16:15.331Z,1.80
2019-05-14T14:18:45.041Z,2.17
2019-05-14T14:21:14.683Z,1.70
2019-05-14T14:23:44.441Z,2.63
2019-05-14T14:26:15.069Z,1.77
2019-05-14T14:28:44.777Z,1.90
2019-05-14T14:31:14.438Z,2.00
2019-05-14T14:33:45.054Z,1.98
2019-05-14T14:36:14.736Z,2.03
2019-05-14T14:38:44.374Z,1.93
2019-05-14T14:41:14.040Z,1.87
2019-05-14T14:43:44.591Z,1.90
2019-05-14T14:46:14.669Z,2.00
2019-05-14T14:48:44.335Z,1.45
2019-05-14T14:51:14.000Z,2.20
2019-05-14T14:53:57.698Z,2.00
2019-05-14T14:56:15.020Z,1.93
2019-05-14T14:58:45.066Z,2.10
2019-05-14T15:01:14.794Z,2.20
2019-05-14T15:03:44.508Z,2.13
2019-05-14T15:06:14.124Z,2.12
2019-05-14T15:08:43.785Z,2.08
2019-05-14T15:11:13.750Z,2.13
2019-05-14T15:13:43.414Z,2.13
2019-05-14T15:16:14.074Z,1.90
2019-05-14T15:18:44.832Z,1.85
2019-05-14T15:21:14.489Z,2.25
2019-05-14T15:24:01.762Z,1.97
2019-05-14T15:26:15.472Z,1.80
2019-05-14T15:28:45.118Z,1.83
2019-05-14T15:31:14.764Z,1.90
2019-05-14T15:33:44.418Z,1.80
2019-05-14T15:36:14.070Z,1.72
2019-05-14T15:38:43.741Z,1.82
2019-05-14T15:41:13.915Z,1.60
2019-05-14T15:43:43.633Z,1.87
2019-05-14T15:46:13.265Z,1.70
2019-05-14T15:48:43.002Z,1.80
2019-05-14T15:51:15.160Z,2.07
2019-05-14T15:54:02.675Z,1.70
2019-05-14T15:56:18.572Z,1.40
2019-05-14T15:58:47.474Z,1.47
2019-05-14T16:01:19.363Z,1.70
2019-05-14T16:03:50.155Z,1.70
2019-05-14T16:06:19.788Z,1.53
2019-05-14T16:08:49.451Z,1.23
2019-05-14T16:11:19.085Z,1.80
2019-05-14T16:13:49.644Z,1.63
2019-05-14T16:16:19.784Z,1.60
2019-05-14T16:18:51.346Z,1.27
2019-05-14T16:21:20.986Z,1.40
2019-05-14T16:23:50.725Z,1.27
2019-05-14T16:26:20.361Z,1.50
2019-05-14T16:28:50.031Z,1.03
2019-05-14T16:31:19.907Z,1.00
2019-05-14T16:33:50.695Z,0.98
2019-05-14T16:36:20.296Z,1.03
2019-05-14T16:38:49.961Z,0.90
2019-05-14T16:41:19.861Z,0.77
2019-05-14T16:43:50.591Z,0.87
2019-05-14T16:46:20.224Z,1.00
2019-05-14T16:48:49.881Z,0.80
2019-05-14T16:51:19.611Z,0.70
2019-05-14T16:53:49.251Z,0.60
2019-05-14T16:56:19.856Z,0.80
2019-05-14T16:58:49.777Z,0.77
2019-05-14T17:01:19.545Z,0.70
2019-05-14T17:03:49.634Z,0.80
2019-05-14T17:06:19.484Z,0.70
2019-05-14T17:08:49.288Z,1.00
2019-05-14T17:11:18.892Z,0.87
2019-05-14T17:13:49.102Z,0.80
2019-05-14T17:16:19.883Z,0.90
2019-05-14T17:18:49.563Z,0.83
2019-05-14T17:21:19.204Z,0.70
2019-05-14T17:23:49.152Z,0.80
2019-05-14T17:26:19.750Z,0.73
2019-05-14T17:28:49.502Z,0.60
2019-05-14T17:31:19.391Z,0.60
2019-05-14T17:33:49.461Z,0.43
2019-05-14T17:36:19.147Z,1.00
2019-05-14T17:38:49.365Z,0.60
2019-05-14T17:41:19.699Z,0.70
2019-05-14T17:43:50.436Z,0.70
2019-05-14T17:46:20.082Z,0.60
2019-05-14T17:48:49.822Z,0.90
2019-05-14T17:51:19.467Z,0.77
2019-05-14T17:53:49.186Z,0.85
2019-05-14T17:56:19.498Z,0.80
2019-05-14T17:58:50.669Z,0.90
2019-05-14T18:01:20.466Z,0.70
2019-05-14T18:03:50.103Z,1.10
2019-05-14T18:06:19.763Z,0.88
2019-05-14T18:08:49.813Z,0.63
2019-05-14T18:11:19.742Z,0.60
2019-05-14T18:13:50.352Z,0.70
2019-05-14T18:16:20.018Z,0.98
2019-05-14T18:18:50.260Z,0.80
2019-05-14T18:21:20.146Z,0.90
2019-05-14T18:23:50.277Z,1.10
2019-05-14T18:26:19.972Z,0.80
2019-05-14T18:28:49.993Z,1.10
2019-05-14T18:31:20.910Z,0.77
2019-05-14T18:33:51.350Z,0.83
2019-05-14T18:36:21.139Z,1.15
2019-05-14T18:38:50.814Z,0.70
2019-05-14T18:41:20.483Z,0.93
2019-05-14T18:43:51.031Z,1.00
2019-05-14T18:46:20.977Z,0.80
2019-05-14T18:48:50.866Z,0.90
2019-05-14T18:51:20.771Z,0.90
2019-05-14T18:53:50.404Z,0.83
2019-05-14T18:56:24.323Z,1.10
2019-05-14T18:58:51.725Z,0.90
2019-05-14T19:01:21.401Z,0.77
2019-05-14T19:03:51.043Z,0.70
2019-05-14T19:06:20.774Z,0.80
2019-05-14T19:08:50.413Z,0.70
2019-05-14T19:11:20.716Z,0.80
2019-05-14T19:13:50.620Z,0.90
2019-05-14T19:16:20.538Z,1.12
2019-05-14T19:18:50.390Z,0.85
2019-05-14T19:21:20.037Z,0.90
2019-05-14T19:23:49.743Z,0.87
2019-05-14T19:26:33.102Z,1.07
2019-05-14T19:28:51.005Z,1.10
2019-05-14T19:31:20.914Z,0.90
2019-05-14T19:33:50.804Z,0.90
2019-05-14T19:36:20.464Z,0.73
2019-05-14T19:38:50.116Z,1.20
2019-05-14T19:41:22.872Z,1.07
2019-05-14T19:43:51.728Z,0.90
2019-05-14T19:46:21.743Z,1.13
2019-05-14T19:48:51.866Z,1.10
2019-05-14T19:51:21.590Z,0.80
2019-05-14T19:53:52.590Z,0.70
2019-05-14T19:56:22.278Z,1.33
2019-05-14T19:58:51.921Z,0.80
2019-05-14T20:01:21.656Z,0.70
2019-05-14T20:03:51.364Z,0.90
2019-05-14T20:06:21.020Z,0.70
2019-05-14T20:08:51.865Z,0.60
2019-05-14T20:11:21.508Z,0.80
2019-05-14T20:13:51.157Z,1.00
2019-05-14T20:16:21.050Z,1.03
2019-05-14T20:18:50.713Z,0.60
2019-05-14T20:21:20.601Z,0.93
2019-05-14T20:23:50.497Z,0.90
2019-05-14T20:26:20.139Z,0.70
2019-05-14T20:28:49.793Z,0.90
2019-05-14T20:31:19.430Z,1.00
2019-05-14T20:33:49.075Z,1.25
2019-05-14T20:36:18.907Z,0.70
2019-05-14T20:38:49.538Z,0.75
2019-05-14T20:41:22.221Z,0.98
2019-05-14T20:43:51.877Z,0.60
2019-05-14T20:46:21.536Z,0.90
2019-05-14T20:48:51.454Z,1.00
2019-05-14T20:51:21.345Z,0.63
2019-05-14T20:53:50.984Z,0.97
2019-05-14T20:56:20.634Z,0.50
2019-05-14T20:58:50.284Z,0.80
2019-05-14T21:01:20.184Z,1.13
2019-05-14T21:03:50.080Z,1.20
2019-05-14T21:06:19.964Z,1.00
2019-05-14T21:08:49.614Z,0.90
2019-05-14T21:11:19.333Z,1.00
2019-05-14T21:13:50.406Z,0.70
2019-05-14T21:16:20.157Z,0.87
2019-05-14T21:18:49.790Z,1.03
2019-05-14T21:21:20.642Z,0.75
2019-05-14T21:23:50.289Z,0.72
2019-05-14T21:26:20.964Z,1.00
2019-05-14T21:28:50.607Z,0.97
2019-05-14T21:31:20.259Z,0.72
2019-05-14T21:33:50.169Z,1.10
2019-05-14T21:36:19.880Z,0.70
2019-05-14T21:38:49.557Z,0.95
2019-05-14T21:41:20.535Z,0.93
2019-05-14T21:43:50.245Z,0.93
2019-05-14T21:46:19.997Z,0.90
2019-05-14T21:48:50.735Z,1.30
2019-05-14T21:51:20.372Z,1.05
2019-05-14T21:53:50.683Z,1.00
2019-05-14T21:56:21.864Z,0.90
2019-05-14T21:58:51.716Z,1.12
2019-05-14T22:01:21.600Z,0.87
2019-05-14T22:03:52.133Z,0.80
2019-05-14T22:06:21.769Z,1.00
2019-05-14T22:08:51.671Z,0.97
2019-05-14T22:11:21.303Z,0.97
2019-05-14T22:13:50.962Z,0.80
2019-05-14T22:16:20.626Z,1.13
2019-05-14T22:18:50.528Z,0.90
2019-05-14T22:21:20.166Z,1.10
2019-05-14T22:23:49.822Z,0.77
2019-05-14T22:26:19.538Z,0.90
2019-05-14T22:28:49.199Z,1.00
2019-05-14T22:31:19.379Z,1.10
2019-05-14T22:33:49.084Z,0.97
2019-05-14T22:36:21.476Z,1.20
2019-05-14T22:38:51.476Z,1.07
2019-05-14T22:41:21.133Z,1.10
2019-05-14T22:43:51.439Z,0.97
2019-05-14T22:46:21.221Z,1.10
2019-05-14T22:48:51.699Z,0.90
2019-05-14T22:51:21.397Z,1.00
2019-05-14T22:53:52.700Z,0.93
2019-05-14T22:56:22.343Z,1.00
2019-05-14T22:58:52.302Z,0.80
2019-05-14T23:01:22.004Z,0.97
2019-05-14T23:03:51.671Z,1.17
2019-05-14T23:06:21.332Z,1.07
2019-05-14T23:08:51.240Z,0.82
2019-05-14T23:11:20.888Z,1.17
2019-05-14T23:13:50.776Z,1.17
2019-05-14T23:16:33.579Z,0.93
2019-05-14T23:18:51.775Z,0.80
2019-05-14T23:21:21.419Z,0.90
2019-05-14T23:23:51.063Z,1.00
2019-05-14T23:26:20.716Z,1.10
2019-05-14T23:28:50.356Z,0.90
2019-05-14T23:31:20.027Z,1.00
2019-05-14T23:33:49.756Z,1.20
2019-05-14T23:36:19.459Z,1.00
2019-05-14T23:38:49.408Z,0.93
2019-05-14T23:41:19.133Z,0.90
2019-05-14T23:43:48.761Z,1.00
2019-05-14T23:46:18.494Z,1.20
2019-05-14T23:48:48.624Z,1.00
2019-05-14T23:51:18.429Z,1.00
2019-05-14T23:53:48.404Z,0.90
2019-05-14T23:56:19.315Z,0.80
2019-05-14T23:58:55.864Z,0.80
